sensor_id;sensor_type;location;lat;lon;timestamp;P1;durP1;ratioP1;P2;durP2;ratioP2
58518;SDS011;44310;48.106;12.008;2022-07-23T19:13:23;23.48;;;7.75;;
58518;SDS011;44310;48.106;12.008;2022-07-23T19:15:51;16.40;;;7.80;;
58518;SDS011;44310;48.106;12.008;2022-07-23T19:18:19;8.45;;;5.00;;
58518;SDS011;44310;48.106;12.008;2022-07-23T19:20:46;12.03;;;5.37;;
58518;SDS011;44310;48.106;12.008;2022-07-23T19:23:14;28.25;;;7.68;;
58518;SDS011;44310;48.106;12.008;2022-07-23T19:25:41;18.45;;;6.63;;
58518;SDS011;44310;48.106;12.008;2022-07-23T19:28:08;15.88;;;6.28;;
58518;SDS011;44310;48.106;12.008;2022-07-23T19:30:36;11.90;;;5.23;;
58518;SDS011;44310;48.106;12.008;2022-07-23T19:33:03;9.98;;;5.10;;
58518;SDS011;44310;48.106;12.008;2022-07-23T19:35:31;19.30;;;5.95;;
58518;SDS011;44310;48.106;12.008;2022-07-23T19:37:58;12.32;;;5.25;;
58518;SDS011;44310;48.106;12.008;2022-07-23T19:40:26;9.13;;;4.72;;
58518;SDS011;44310;48.106;12.008;2022-07-23T19:42:54;11.35;;;5.35;;
58518;SDS011;44310;48.106;12.008;2022-07-23T19:45:21;7.90;;;4.63;;
58518;SDS011;44310;48.106;12.008;2022-07-23T19:47:49;11.30;;;5.15;;
58518;SDS011;44310;48.106;12.008;2022-07-23T19:50:21;11.25;;;5.90;;
58518;SDS011;44310;48.106;12.008;2022-07-23T19:52:50;18.80;;;6.13;;
58518;SDS011;44310;48.106;12.008;2022-07-23T19:55:20;14.50;;;5.70;;
58518;SDS011;44310;48.106;12.008;2022-07-23T19:57:48;6.72;;;4.90;;
58518;SDS011;44310;48.106;12.008;2022-07-23T20:00:16;8.63;;;5.20;;
58518;SDS011;44310;48.106;12.008;2022-07-23T20:02:44;9.40;;;4.28;;
58518;SDS011;44310;48.106;12.008;2022-07-23T20:05:20;6.72;;;4.45;;
58518;SDS011;44310;48.106;12.008;2022-07-23T20:07:48;4.82;;;4.13;;
58518;SDS011;44310;48.106;12.008;2022-07-23T20:10:16;4.60;;;3.92;;
58518;SDS011;44310;48.106;12.008;2022-07-23T20:12:45;7.15;;;4.90;;
58518;SDS011;44310;48.106;12.008;2022-07-23T20:15:13;4.63;;;4.23;;
58518;SDS011;44310;48.106;12.008;2022-07-23T20:17:41;9.20;;;4.68;;
58518;SDS011;44310;48.106;12.008;2022-07-23T20:20:09;10.38;;;4.78;;
58518;SDS011;44310;48.106;12.008;2022-07-23T20:22:37;4.53;;;4.13;;
58518;SDS011;44310;48.106;12.008;2022-07-23T20:25:08;5.10;;;3.90;;
58518;SDS011;44310;48.106;12.008;2022-07-23T20:27:35;3.80;;;3.50;;
58518;SDS011;44310;48.106;12.008;2022-07-23T20:30:04;4.37;;;3.97;;
58518;SDS011;44310;48.106;12.008;2022-07-23T20:32:32;3.85;;;3.55;;
58518;SDS011;44310;48.106;12.008;2022-07-23T20:35:00;4.60;;;4.22;;
58518;SDS011;44310;48.106;12.008;2022-07-23T20:37:27;8.43;;;4.10;;
58518;SDS011;44310;48.106;12.008;2022-07-23T20:39:55;3.90;;;3.60;;
58518;SDS011;44310;48.106;12.008;2022-07-23T20:42:22;3.92;;;3.63;;
58518;SDS011;44310;48.106;12.008;2022-07-23T20:44:50;4.05;;;3.85;;
58518;SDS011;44310;48.106;12.008;2022-07-23T20:47:20;4.35;;;3.95;;
58518;SDS011;44310;48.106;12.008;2022-07-23T20:49:51;4.18;;;3.90;;
58518;SDS011;44310;48.106;12.008;2022-07-23T20:52:22;4.95;;;4.10;;
58518;SDS011;44310;48.106;12.008;2022-07-23T20:54:52;4.78;;;4.18;;
58518;SDS011;44310;48.106;12.008;2022-07-23T20:57:20;5.63;;;4.33;;
58518;SDS011;44310;48.106;12.008;2022-07-23T20:59:48;11.38;;;4.50;;
58518;SDS011;44310;48.106;12.008;2022-07-23T21:02:16;5.18;;;3.85;;
58518;SDS011;44310;48.106;12.008;2022-07-23T21:04:46;4.50;;;3.73;;
58518;SDS011;44310;48.106;12.008;2022-07-23T21:07:17;4.10;;;3.80;;
58518;SDS011;44310;48.106;12.008;2022-07-23T21:09:46;4.47;;;4.07;;
58518;SDS011;44310;48.106;12.008;2022-07-23T21:12:18;4.15;;;3.83;;
58518;SDS011;44310;48.106;12.008;2022-07-23T21:14:55;4.65;;;3.90;;
58518;SDS011;44310;48.106;12.008;2022-07-23T21:17:27;4.63;;;4.07;;
58518;SDS011;44310;48.106;12.008;2022-07-23T21:19:54;5.10;;;4.00;;
58518;SDS011;44310;48.106;12.008;2022-07-23T21:22:21;5.65;;;3.92;;
58518;SDS011;44310;48.106;12.008;2022-07-23T21:24:48;3.97;;;3.78;;
58518;SDS011;44310;48.106;12.008;2022-07-23T21:27:16;3.93;;;3.63;;
58518;SDS011;44310;48.106;12.008;2022-07-23T21:29:43;8.85;;;4.50;;
58518;SDS011;44310;48.106;12.008;2022-07-23T21:32:11;6.00;;;4.15;;
58518;SDS011;44310;48.106;12.008;2022-07-23T21:34:38;8.57;;;4.38;;
58518;SDS011;44310;48.106;12.008;2022-07-23T21:37:05;13.98;;;5.10;;
58518;SDS011;44310;48.106;12.008;2022-07-23T21:39:33;11.83;;;5.20;;
58518;SDS011;44310;48.106;12.008;2022-07-23T21:42:00;11.50;;;4.78;;
58518;SDS011;44310;48.106;12.008;2022-07-23T21:44:28;8.55;;;5.13;;
58518;SDS011;44310;48.106;12.008;2022-07-23T21:46:55;8.15;;;4.72;;
58518;SDS011;44310;48.106;12.008;2022-07-23T21:49:22;14.00;;;5.13;;
58518;SDS011;44310;48.106;12.008;2022-07-23T21:51:50;10.90;;;5.80;;
58518;SDS011;44310;48.106;12.008;2022-07-23T21:54:17;30.95;;;7.13;;
58518;SDS011;44310;48.106;12.008;2022-07-23T21:56:45;12.13;;;4.90;;
58518;SDS011;44310;48.106;12.008;2022-07-23T21:59:13;6.40;;;4.40;;
58518;SDS011;44310;48.106;12.008;2022-07-23T22:01:42;6.53;;;4.30;;
58518;SDS011;44310;48.106;12.008;2022-07-23T22:04:09;5.60;;;4.07;;
58518;SDS011;44310;48.106;12.008;2022-07-23T22:06:37;4.20;;;3.80;;
58518;SDS011;44310;48.106;12.008;2022-07-23T22:09:07;4.80;;;3.80;;
58518;SDS011;44310;48.106;12.008;2022-07-23T22:11:34;3.90;;;3.60;;
58518;SDS011;44310;48.106;12.008;2022-07-23T22:14:02;7.60;;;4.82;;
58518;SDS011;44310;48.106;12.008;2022-07-23T22:16:29;4.75;;;4.30;;
58518;SDS011;44310;48.106;12.008;2022-07-23T22:18:57;8.53;;;4.23;;
58518;SDS011;44310;48.106;12.008;2022-07-23T22:21:25;4.47;;;4.07;;
58518;SDS011;44310;48.106;12.008;2022-07-23T22:24:09;4.20;;;3.80;;
58518;SDS011;44310;48.106;12.008;2022-07-23T22:26:37;4.22;;;3.85;;
58518;SDS011;44310;48.106;12.008;2022-07-23T22:29:04;4.43;;;4.13;;
58518;SDS011;44310;48.106;12.008;2022-07-23T22:31:33;4.18;;;3.88;;
58518;SDS011;44310;48.106;12.008;2022-07-23T22:34:00;10.43;;;4.97;;
58518;SDS011;44310;48.106;12.008;2022-07-23T22:36:27;17.52;;;6.57;;
58518;SDS011;44310;48.106;12.008;2022-07-23T22:38:55;8.10;;;4.43;;
58518;SDS011;44310;48.106;12.008;2022-07-23T22:41:23;23.52;;;5.75;;
58518;SDS011;44310;48.106;12.008;2022-07-23T22:43:50;19.33;;;7.90;;
58518;SDS011;44310;48.106;12.008;2022-07-23T22:46:17;20.48;;;6.97;;
58518;SDS011;44310;48.106;12.008;2022-07-23T22:48:45;20.20;;;6.22;;
58518;SDS011;44310;48.106;12.008;2022-07-23T22:51:13;43.92;;;10.95;;
58518;SDS011;44310;48.106;12.008;2022-07-23T22:53:45;9.70;;;5.10;;
58518;SDS011;44310;48.106;12.008;2022-07-23T22:56:13;23.13;;;5.88;;
58518;SDS011;44310;48.106;12.008;2022-07-23T22:58:40;16.63;;;6.55;;
58518;SDS011;44310;48.106;12.008;2022-07-23T23:01:08;11.57;;;5.40;;
58518;SDS011;44310;48.106;12.008;2022-07-23T23:03:35;12.60;;;5.93;;
58518;SDS011;44310;48.106;12.008;2022-07-23T23:06:03;9.07;;;5.97;;
58518;SDS011;44310;48.106;12.008;2022-07-23T23:08:30;17.08;;;5.82;;
58518;SDS011;44310;48.106;12.008;2022-07-23T23:10:57;12.00;;;5.28;;
58518;SDS011;44310;48.106;12.008;2022-07-23T23:13:25;11.55;;;5.88;;
58518;SDS011;44310;48.106;12.008;2022-07-23T23:15:52;16.02;;;6.40;;
58518;SDS011;44310;48.106;12.008;2022-07-23T23:18:19;14.37;;;6.97;;
58518;SDS011;44310;48.106;12.008;2022-07-23T23:20:47;18.50;;;7.75;;
58518;SDS011;44310;48.106;12.008;2022-07-23T23:23:14;17.48;;;6.32;;
58518;SDS011;44310;48.106;12.008;2022-07-23T23:25:41;13.02;;;5.85;;
58518;SDS011;44310;48.106;12.008;2022-07-23T23:28:09;11.80;;;6.13;;
58518;SDS011;44310;48.106;12.008;2022-07-23T23:30:36;14.15;;;6.47;;
58518;SDS011;44310;48.106;12.008;2022-07-23T23:33:04;9.55;;;4.93;;
58518;SDS011;44310;48.106;12.008;2022-07-23T23:35:32;13.13;;;5.65;;
58518;SDS011;44310;48.106;12.008;2022-07-23T23:37:59;8.48;;;5.03;;
58518;SDS011;44310;48.106;12.008;2022-07-23T23:40:27;8.52;;;4.90;;
58518;SDS011;44310;48.106;12.008;2022-07-23T23:42:54;11.03;;;4.93;;
58518;SDS011;44310;48.106;12.008;2022-07-23T23:45:21;10.23;;;5.35;;
58518;SDS011;44310;48.106;12.008;2022-07-23T23:47:49;6.63;;;4.70;;
58518;SDS011;44310;48.106;12.008;2022-07-23T23:50:16;7.13;;;4.93;;
58518;SDS011;44310;48.106;12.008;2022-07-23T23:52:43;8.95;;;5.07;;
58518;SDS011;44310;48.106;12.008;2022-07-23T23:55:11;10.45;;;5.43;;
58518;SDS011;44310;48.106;12.008;2022-07-23T23:57:38;7.67;;;4.73;;
